Time;durP1;ratioP1;P1;durP2;ratioP2;P2;SDS_P1;SDS_P2;PMS_P1;PMS_P2;Temp;Humidity;BMP_temperature;BMP_pressure;BME280_temperature;BME280_humidity;BME280_pressure;Samples;Min_cycle;Max_cycle;Signal;HPM_P1;HPM_P2
2023/07/18 00:00:27;;;;;;;2.72;1.63;;;;;;;11.80;100.00;101996.53;1000882;29;20315;-87
2023/07/18 00:00:59;;;;;;;2.72;1.30;;;;;;;11.76;100.00;101991.53;998881;29;20386;-87
2023/07/18 00:01:31;;;;;;;3.03;1.60;;;;;;;11.70;100.00;101988.81;997158;29;20325;-87
2023/07/18 00:02:03;;;;;;;6.22;1.88;;;;;;;11.91;100.00;101991.47;1000806;29;20046;-86
2023/07/18 00:02:36;;;;;;;2.10;1.30;;;;;;;11.83;100.00;101991.63;1004594;29;20048;-87
2023/07/18 00:03:08;;;;;;;3.75;1.77;;;;;;;11.91;100.00;101988.78;1000962;29;20385;-87
2023/07/18 00:03:40;;;;;;;2.33;1.90;;;;;;;11.79;100.00;101987.69;1004801;29;20133;-87
2023/07/18 00:04:12;;;;;;;3.55;1.63;;;;;;;11.51;100.00;101978.84;1008895;29;20057;-87
2023/07/18 00:04:44;;;;;;;4.60;2.83;;;;;;;11.56;100.00;101984.44;1004615;29;20086;-87
2023/07/18 00:05:15;;;;;;;3.75;1.50;;;;;;;11.57;100.00;101986.91;1012054;29;20056;-87
2023/07/18 00:05:47;;;;;;;2.60;1.00;;;;;;;11.77;100.00;101984.34;1004583;29;20087;-87
2023/07/18 00:06:19;;;;;;;3.13;1.20;;;;;;;11.78;100.00;101988.72;1004619;29;20469;-87
2023/07/18 00:06:51;;;;;;;3.83;1.30;;;;;;;11.72;100.00;101984.13;1008606;29;20093;-87
2023/07/18 00:07:23;;;;;;;5.05;1.60;;;;;;;11.83;100.00;101980.94;1004384;29;20049;-87
2023/07/18 00:07:55;;;;;;;2.17;1.58;;;;;;;11.84;100.00;101985.25;1001609;29;20299;-87
2023/07/18 00:08:27;;;;;;;1.73;1.05;;;;;;;11.87;100.00;101982.19;1008496;29;20041;-87
2023/07/18 00:08:59;;;;;;;3.25;1.60;;;;;;;11.69;100.00;101984.50;1008347;29;20073;-87
2023/07/18 00:09:31;;;;;;;1.30;1.17;;;;;;;11.50;100.00;101978.00;1004544;29;20057;-87
2023/07/18 00:10:03;;;;;;;3.17;1.33;;;;;;;11.50;100.00;101979.84;1004721;29;20534;-87
2023/07/18 00:10:35;;;;;;;3.50;1.40;;;;;;;11.48;100.00;101982.72;1000800;29;20049;-87
2023/07/18 00:11:07;;;;;;;2.55;1.60;;;;;;;11.64;100.00;101976.25;1000837;29;20310;-87
2023/07/18 00:11:42;;;;;;;2.95;2.05;;;;;;;11.66;100.00;101980.38;1000868;29;21101;-87
2023/07/18 00:12:13;;;;;;;3.40;1.88;;;;;;;11.84;100.00;101982.59;1006345;29;20757;-87
2023/07/18 00:12:46;;;;;;;4.22;1.60;;;;;;;11.86;100.00;101979.72;1004588;29;20046;-87
2023/07/18 00:13:17;;;;;;;1.52;1.42;;;;;;;11.81;100.00;101974.97;1004811;29;20049;-87
2023/07/18 00:13:49;;;;;;;3.25;1.92;;;;;;;11.91;100.00;101986.13;1008411;29;20045;-87
2023/07/18 00:14:22;;;;;;;1.80;1.52;;;;;;;11.96;100.00;101978.34;1008646;29;20045;-87
2023/07/18 00:14:54;;;;;;;2.17;1.17;;;;;;;11.89;100.00;101977.47;1008338;29;20037;-87
2023/07/18 00:15:26;;;;;;;3.40;1.60;;;;;;;11.82;100.00;101984.63;1008695;29;20353;-87
2023/07/18 00:15:58;;;;;;;3.63;1.17;;;;;;;11.68;100.00;101982.84;1004550;29;20317;-87
2023/07/18 00:16:30;;;;;;;2.30;1.75;;;;;;;11.71;100.00;101982.47;1012360;29;20048;-87
2023/07/18 00:17:02;;;;;;;6.10;2.13;;;;;;;11.53;100.00;101980.31;1002637;29;20816;-87
2023/07/18 00:17:33;;;;;;;3.45;1.40;;;;;;;11.67;100.00;101981.22;1008671;29;20051;-87
2023/07/18 00:18:06;;;;;;;3.03;1.40;;;;;;;11.72;100.00;101982.25;1008318;29;20072;-87
2023/07/18 00:18:38;;;;;;;4.65;1.48;;;;;;;11.74;100.00;101987.41;1006076;29;20063;-87
2023/07/18 00:19:12;;;;;;;2.75;1.58;;;;;;;11.60;100.00;101981.16;1012317;29;20052;-87
2023/07/18 00:19:43;;;;;;;2.28;1.50;;;;;;;11.46;100.00;101982.91;1009700;29;20313;-87
2023/07/18 00:20:18;;;;;;;4.55;1.73;;;;;;;11.48;100.00;101981.88;1007315;29;20394;-87
2023/07/18 00:20:50;;;;;;;5.10;1.60;;;;;;;11.63;100.00;101985.28;1000790;29;20326;-87
2023/07/18 00:21:22;;;;;;;10.73;3.13;;;;;;;11.69;100.00;101985.34;997125;29;20307;-87
2023/07/18 00:21:54;;;;;;;2.53;1.48;;;;;;;11.56;100.00;101979.09;1001923;29;20319;-87
2023/07/18 00:22:25;;;;;;;2.42;1.55;;;;;;;11.39;100.00;101979.38;1004031;29;20086;-87
2023/07/18 00:22:57;;;;;;;3.35;1.52;;;;;;;11.60;100.00;101983.03;1008460;29;20049;-87
2023/07/18 00:23:30;;;;;;;1.90;1.38;;;;;;;11.53;100.00;101979.47;1000727;29;20046;-86
2023/07/18 00:24:02;;;;;;;2.10;1.90;;;;;;;11.41;100.00;101973.84;999635;29;20053;-87
2023/07/18 00:24:34;;;;;;;3.22;1.48;;;;;;;11.34;100.00;101976.47;1000998;29;20317;-86
2023/07/18 00:25:13;;;;;;;2.20;1.25;;;;;;;11.45;100.00;101977.75;1004514;29;20049;-87
2023/07/18 00:25:45;;;;;;;3.70;1.40;;;;;;;11.40;100.00;101980.19;997059;29;20355;-87
2023/07/18 00:26:17;;;;;;;2.72;1.25;;;;;;;11.37;100.00;101976.06;997849;29;20500;-87
2023/07/18 00:26:48;;;;;;;2.63;1.38;;;;;;;11.52;100.00;101978.66;1008202;29;20041;-87
2023/07/18 00:27:20;;;;;;;4.50;1.90;;;;;;;11.45;100.00;101981.25;1004295;29;20580;-87
2023/07/18 00:27:53;;;;;;;5.05;1.50;;;;;;;11.27;100.00;101980.94;1004947;29;20041;-87
2023/07/18 00:28:25;;;;;;;4.55;1.85;;;;;;;11.26;100.00;101981.13;1004008;29;20087;-87
2023/07/18 00:28:57;;;;;;;4.70;1.75;;;;;;;11.36;100.00;101976.28;1008505;29;20056;-87
2023/07/18 00:29:28;;;;;;;3.72;1.50;;;;;;;11.30;100.00;101975.22;1010328;29;20309;-86
2023/07/18 00:30:00;;;;;;;2.33;1.45;;;;;;;11.26;100.00;101979.28;1006102;29;20105;-87
2023/07/18 00:30:32;;;;;;;2.83;1.20;;;;;;;11.40;100.00;101975.69;1012043;29;20154;-86
2023/07/18 00:31:03;;;;;;;4.35;1.42;;;;;;;11.31;100.00;101982.19;1009210;29;20306;-87
2023/07/18 00:31:36;;;;;;;2.72;1.48;;;;;;;11.30;100.00;101980.53;1009857;29;20340;-86
2023/07/18 00:32:08;;;;;;;4.63;1.58;;;;;;;11.51;100.00;101982.34;1004457;29;20053;-86
2023/07/18 00:32:42;;;;;;;3.80;1.33;;;;;;;11.69;100.00;101984.50;995610;29;20183;-87
2023/07/18 00:33:14;;;;;;;6.53;1.48;;;;;;;11.69;100.00;101980.00;1007471;29;20049;-86
2023/07/18 00:33:47;;;;;;;2.08;1.48;;;;;;;11.62;100.00;101979.13;1003546;29;20140;-86
2023/07/18 00:34:18;;;;;;;3.92;1.52;;;;;;;11.31;100.00;101976.84;1000359;29;20057;-86
2023/07/18 00:34:50;;;;;;;12.65;1.95;;;;;;;11.32;100.00;101981.16;1004119;29;20052;-87
2023/07/18 00:35:22;;;;;;;4.20;1.65;;;;;;;11.37;100.00;101980.59;1004261;29;20063;-87
2023/07/18 00:35:54;;;;;;;2.22;1.70;;;;;;;11.38;100.00;101979.56;1004285;29;20041;-87
2023/07/18 00:36:27;;;;;;;3.95;1.40;;;;;;;11.51;100.00;101976.19;1004224;29;20049;-87
2023/07/18 00:36:59;;;;;;;6.57;1.73;;;;;;;11.68;100.00;101977.53;1004196;29;20046;-87
2023/07/18 00:37:32;;;;;;;5.82;2.00;;;;;;;11.57;100.00;101983.41;1004287;29;20847;-87
2023/07/18 00:38:04;;;;;;;5.68;1.60;;;;;;;11.74;100.00;101982.91;1008062;29;20059;-87
2023/07/18 00:38:35;;;;;;;3.45;1.90;;;;;;;11.82;100.00;101979.31;1012014;29;20044;-87
2023/07/18 00:39:07;;;;;;;4.68;1.63;;;;;;;11.44;100.00;101974.28;1007860;29;20061;-87
2023/07/18 00:39:39;;;;;;;3.47;1.83;;;;;;;11.48;100.00;101980.03;1008096;29;20045;-86
2023/07/18 00:40:12;;;;;;;1.95;1.50;;;;;;;11.42;100.00;101978.97;1004587;29;20094;-86
2023/07/18 00:40:47;;;;;;;1.58;1.30;;;;;;;11.29;100.00;101978.88;1004078;29;20370;-87
2023/07/18 00:41:19;;;;;;;6.22;1.42;;;;;;;11.45;100.00;101975.09;1002812;29;20109;-87
2023/07/18 00:41:52;;;;;;;4.00;2.25;;;;;;;11.42;100.00;101978.97;1004253;29;20397;-86
2023/07/18 00:42:25;;;;;;;1.83;1.10;;;;;;;11.41;100.00;101982.66;1001707;29;20569;-86
2023/07/18 00:42:58;;;;;;;4.65;1.80;;;;;;;11.32;100.00;101975.84;1002243;29;20050;-86
2023/07/18 00:43:33;;;;;;;1.58;1.20;;;;;;;11.49;100.00;101976.34;1004281;29;20309;-86
2023/07/18 00:44:07;;;;;;;2.53;1.30;;;;;;;11.25;100.00;101982.97;998577;29;20311;-87
2023/07/18 00:44:39;;;;;;;2.55;1.15;;;;;;;11.22;100.00;101978.00;1002060;29;20049;-87
2023/07/18 00:45:11;;;;;;;4.07;1.80;;;;;;;11.31;100.00;101971.53;1000459;29;20054;-86
2023/07/18 00:45:44;;;;;;;6.40;1.65;;;;;;;11.51;100.00;101976.19;1001250;29;20115;-86
2023/07/18 00:46:18;;;;;;;3.78;1.50;;;;;;;11.40;100.00;101975.69;1008109;29;20097;-87
2023/07/18 00:46:49;;;;;;;2.90;1.83;;;;;;;11.33;100.00;101974.81;1011813;29;20728;-87
2023/07/18 00:47:23;;;;;;;2.45;1.33;;;;;;;11.39;100.00;101968.69;1000089;29;20526;-87
2023/07/18 00:47:55;;;;;;;2.38;1.45;;;;;;;11.25;100.00;101972.28;1007974;29;20068;-87
2023/07/18 00:48:27;;;;;;;4.18;1.58;;;;;;;11.15;100.00;101977.13;1004143;29;20053;-87
2023/07/18 00:48:59;;;;;;;2.03;1.67;;;;;;;11.24;100.00;101975.97;1005751;29;20819;-87
2023/07/18 00:49:31;;;;;;;4.32;1.50;;;;;;;11.39;100.00;101966.03;1008177;29;20051;-87
2023/07/18 00:50:07;;;;;;;8.57;1.88;;;;;;;11.20;100.00;101976.53;1002658;29;20056;-87
2023/07/18 00:50:39;;;;;;;9.18;1.80;;;;;;;11.17;100.00;101974.25;1006489;29;20048;-86
2023/07/18 00:51:11;;;;;;;2.20;1.63;;;;;;;11.32;100.00;101973.16;1010915;29;20354;-87
2023/07/18 00:51:43;;;;;;;2.83;1.40;;;;;;;11.32;100.00;101978.50;1011642;29;20170;-87
2023/07/18 00:52:15;;;;;;;4.97;1.63;;;;;;;11.27;100.00;101975.59;1004307;29;20353;-87
2023/07/18 00:52:49;;;;;;;5.57;1.75;;;;;;;11.33;100.00;101974.81;1001706;29;20050;-87
2023/07/18 00:53:22;;;;;;;3.08;1.75;;;;;;;11.29;100.00;101970.88;1003904;29;20049;-87
2023/07/18 00:53:54;;;;;;;2.78;1.45;;;;;;;11.38;100.00;101977.72;1001214;29;20052;-86
2023/07/18 00:54:26;;;;;;;2.78;1.50;;;;;;;11.32;100.00;101978.50;997502;29;20356;-87
2023/07/18 00:54:58;;;;;;;5.13;2.13;;;;;;;11.32;100.00;101978.50;997050;29;20065;-87
2023/07/18 00:55:31;;;;;;;4.55;1.73;;;;;;;11.34;100.00;101979.13;1004784;29;20403;-87
2023/07/18 00:56:05;;;;;;;3.70;2.10;;;;;;;11.25;100.00;101974.16;1004075;29;20050;-87
2023/07/18 00:56:37;;;;;;;3.47;1.65;;;;;;;11.34;100.00;101979.13;1003903;29;20045;-87
2023/07/18 00:57:09;;;;;;;4.28;2.17;;;;;;;11.29;100.00;101978.88;1005618;29;20071;-86
2023/07/18 00:57:42;;;;;;;3.78;1.77;;;;;;;11.19;100.00;101985.56;1003657;29;20050;-87
2023/07/18 00:58:14;;;;;;;3.25;2.30;;;;;;;11.24;100.00;101975.97;1000044;29;20050;-86
2023/07/18 00:58:46;;;;;;;7.13;2.47;;;;;;;11.17;100.00;101980.41;1007866;29;20408;-87
2023/07/18 00:59:18;;;;;;;4.93;1.35;;;;;;;11.06;100.00;101975.59;998752;29;20050;-87
2023/07/18 00:59:50;;;;;;;1.88;1.27;;;;;;;11.06;100.00;101979.09;1004062;29;20078;-87
2023/07/18 01:00:24;;;;;;;2.53;1.73;;;;;;;11.07;100.00;101979.94;1008025;29;20202;-86
2023/07/18 01:00:56;;;;;;;2.70;1.92;;;;;;;11.41;100.00;101980.00;1004226;29;20059;-86
2023/07/18 01:01:28;;;;;;;4.35;1.45;;;;;;;11.28;100.00;101977.25;1013709;29;20051;-86
2023/07/18 01:02:02;;;;;;;3.80;1.15;;;;;;;11.26;100.00;101973.94;1008979;29;20056;-86
2023/07/18 01:02:37;;;;;;;2.63;1.63;;;;;;;11.23;100.00;101974.34;1004137;29;20056;-87
2023/07/18 01:03:09;;;;;;;7.47;1.30;;;;;;;11.24;100.00;101970.66;1004020;29;20049;-86
2023/07/18 01:03:42;;;;;;;3.08;1.67;;;;;;;11.20;100.00;101968.53;1004136;29;20049;-86
2023/07/18 01:04:13;;;;;;;2.38;1.42;;;;;;;11.18;100.00;101974.06;1007818;29;20061;-86
2023/07/18 01:04:46;;;;;;;1.88;1.40;;;;;;;11.26;100.00;101968.63;1007864;29;20045;-86
2023/07/18 01:05:18;;;;;;;1.33;1.23;;;;;;;11.36;100.00;101973.59;1004357;29;20599;-86
2023/07/18 01:05:50;;;;;;;6.95;1.58;;;;;;;11.42;100.00;101973.66;1003823;29;20310;-86
2023/07/18 01:06:24;;;;;;;3.33;2.50;;;;;;;11.36;100.00;101973.59;1007989;29;20312;-86
2023/07/18 01:06:59;;;;;;;1.40;0.80;;;;;;;11.28;100.00;101966.56;1004179;29;20061;-86
2023/07/18 01:07:31;;;;;;;2.15;1.30;;;;;;;11.31;100.00;101965.38;998213;29;20062;-86
2023/07/18 01:08:03;;;;;;;2.40;1.25;;;;;;;11.26;100.00;101979.28;1007873;29;20124;-86
2023/07/18 01:08:37;;;;;;;4.35;1.38;;;;;;;11.26;100.00;101968.63;1000071;29;20132;-86
2023/07/18 01:09:11;;;;;;;3.15;1.42;;;;;;;11.22;100.00;101978.00;1004031;29;20132;-86
2023/07/18 01:09:43;;;;;;;2.95;1.30;;;;;;;11.40;100.00;101975.69;1004309;29;20373;-86
2023/07/18 01:10:25;;;;;;;3.60;1.65;;;;;;;11.58;100.00;101974.38;1004037;29;20314;-86
2023/07/18 01:10:57;;;;;;;5.95;2.30;;;;;;;11.51;100.00;101971.69;1003932;29;20855;-86
2023/07/18 01:11:29;;;;;;;7.40;1.80;;;;;;;11.62;100.00;101967.63;1000386;29;20673;-86
2023/07/18 01:12:02;;;;;;;2.03;1.75;;;;;;;11.40;100.00;101970.34;1003989;29;20337;-87
2023/07/18 01:12:35;;;;;;;2.22;1.17;;;;;;;11.43;100.00;101969.97;1002894;29;20048;-86
2023/07/18 01:13:07;;;;;;;2.38;1.40;;;;;;;11.30;100.00;101975.22;1005068;29;20313;-86
2023/07/18 01:13:38;;;;;;;3.38;1.70;;;;;;;11.41;100.00;101977.34;1004466;29;20336;-86
2023/07/18 01:14:10;;;;;;;3.15;1.52;;;;;;;11.68;100.00;101972.19;1000393;29;20050;-87
2023/07/18 01:14:43;;;;;;;1.75;1.50;;;;;;;11.56;100.00;101979.09;1011611;29;20323;-87
2023/07/18 01:15:15;;;;;;;6.85;1.67;;;;;;;11.39;100.00;101967.88;1011556;29;20312;-87
2023/07/18 01:15:46;;;;;;;2.75;1.52;;;;;;;11.56;100.00;101973.75;1008117;29;20309;-86
2023/07/18 01:16:18;;;;;;;4.10;1.52;;;;;;;11.38;100.00;101972.38;1006370;29;20527;-86
2023/07/18 01:16:52;;;;;;;2.60;1.48;;;;;;;11.26;100.00;101976.63;1010668;29;20301;-86
2023/07/18 01:17:24;;;;;;;3.05;1.50;;;;;;;11.48;100.00;101976.56;1008083;29;20349;-86
2023/07/18 01:17:56;;;;;;;2.28;1.52;;;;;;;11.46;100.00;101966.91;1011903;29;20040;-86
2023/07/18 01:18:28;;;;;;;3.67;2.50;;;;;;;11.51;100.00;101978.84;1000055;29;20410;-86
2023/07/18 01:18:59;;;;;;;2.38;1.73;;;;;;;11.61;100.00;101976.66;1006130;29;20317;-86
2023/07/18 01:19:31;;;;;;;7.18;2.17;;;;;;;11.65;100.00;101973.41;1007859;29;20311;-86
2023/07/18 01:20:04;;;;;;;3.50;2.78;;;;;;;11.64;100.00;101965.59;1003847;29;20049;-86
2023/07/18 01:20:36;;;;;;;2.38;2.00;;;;;;;11.49;100.00;101968.34;1005021;29;20323;-86
2023/07/18 01:21:09;;;;;;;2.38;1.80;;;;;;;11.37;100.00;101970.75;1005966;29;20136;-86
2023/07/18 01:21:42;;;;;;;2.55;1.50;;;;;;;11.49;100.00;101970.19;1007868;29;20056;-86
2023/07/18 01:22:13;;;;;;;2.80;1.90;;;;;;;11.54;100.00;101970.47;1007531;29;20328;-87
2023/07/18 01:22:53;;;;;;;6.90;1.98;;;;;;;11.59;100.00;101968.03;1004159;29;20050;-86
2023/07/18 01:23:28;;;;;;;6.57;2.20;;;;;;;11.42;100.00;101968.31;1009490;29;20098;-86
2023/07/18 01:24:00;;;;;;;3.20;2.20;;;;;;;11.32;100.00;101962.50;1005555;29;20042;-86
2023/07/18 01:24:31;;;;;;;2.33;2.10;;;;;;;11.55;100.00;101964.94;1003621;29;20756;-87
2023/07/18 01:25:03;;;;;;;4.75;2.45;;;;;;;11.55;100.00;101967.59;1004052;29;20496;-87
2023/07/18 01:25:36;;;;;;;4.72;2.22;;;;;;;11.56;100.00;101969.25;1007673;29;20430;-86
2023/07/18 01:26:08;;;;;;;3.22;2.75;;;;;;;11.55;100.00;101964.94;1015636;29;20326;-87
2023/07/18 01:26:39;;;;;;;4.53;1.67;;;;;;;11.68;100.00;101969.50;1007966;29;20048;-87
2023/07/18 01:27:11;;;;;;;4.50;2.20;;;;;;;11.44;100.00;101966.28;1007852;29;20305;-87
2023/07/18 01:27:50;;;;;;;6.05;2.40;;;;;;;11.27;100.00;101967.59;1007893;29;20341;-86
2023/07/18 01:28:22;;;;;;;2.80;1.92;;;;;;;11.23;100.00;101966.34;1004008;29;20309;-87
2023/07/18 01:28:53;;;;;;;4.40;2.33;;;;;;;11.20;100.00;101958.69;999463;29;20050;-87
2023/07/18 01:29:25;;;;;;;3.50;2.15;;;;;;;11.31;100.00;101960.84;1002828;29;20322;-86
2023/07/18 01:29:56;;;;;;;4.88;1.92;;;;;;;11.40;100.00;101961.53;1007660;29;20297;-88
2023/07/18 01:30:29;;;;;;;4.70;2.28;;;;;;;11.28;100.00;101960.41;1006911;29;20355;-86
2023/07/18 01:31:01;;;;;;;4.53;2.17;;;;;;;11.28;100.00;101961.25;1003866;29;20306;-87
2023/07/18 01:31:33;;;;;;;2.83;2.15;;;;;;;11.41;100.00;101964.00;1003829;29;20866;-87
2023/07/18 01:32:07;;;;;;;4.10;3.70;;;;;;;11.34;100.00;101970.31;1003998;29;20298;-86
2023/07/18 01:32:38;;;;;;;6.63;2.15;;;;;;;10.98;100.00;101970.41;1006855;29;20048;-87
2023/07/18 01:33:10;;;;;;;3.47;2.63;;;;;;;11.11;100.00;101965.19;1007826;29;20332;-86
2023/07/18 01:33:43;;;;;;;7.32;2.88;;;;;;;11.23;100.00;101963.66;1003984;29;20045;-87
2023/07/18 01:34:15;;;;;;;6.22;2.25;;;;;;;11.42;100.00;101978.97;1011669;29;20055;-86
2023/07/18 01:34:47;;;;;;;4.18;1.90;;;;;;;11.45;100.00;101967.91;1007723;29;20049;-86
2023/07/18 01:35:25;;;;;;;9.75;2.20;;;;;;;11.50;100.00;101969.19;1011825;29;20482;-87
2023/07/18 01:35:57;;;;;;;3.30;1.85;;;;;;;11.53;100.00;101974.16;998977;29;20060;-87
2023/07/18 01:36:29;;;;;;;9.75;3.13;;;;;;;11.59;100.00;101973.38;1006222;29;20306;-87
2023/07/18 01:37:01;;;;;;;4.25;3.05;;;;;;;11.59;100.00;101976.03;1007928;29;20313;-87
2023/07/18 01:37:33;;;;;;;6.25;2.53;;;;;;;11.50;100.00;101975.34;1008033;29;20381;-86
2023/07/18 01:38:04;;;;;;;7.22;2.42;;;;;;;11.56;100.00;101979.09;1003941;29;20314;-87
2023/07/18 01:38:36;;;;;;;2.88;2.00;;;;;;;11.57;100.00;101972.72;1003684;29;21235;-86
2023/07/18 01:39:08;;;;;;;6.28;2.15;;;;;;;11.52;100.00;101969.84;1000155;29;20302;-87
2023/07/18 01:39:40;;;;;;;3.72;2.63;;;;;;;11.51;100.00;101968.19;1002813;29;20321;-86
2023/07/18 01:40:15;;;;;;;5.05;1.88;;;;;;;11.46;100.00;101968.75;1014941;29;20394;-87
2023/07/18 01:40:47;;;;;;;6.13;1.92;;;;;;;11.51;100.00;101977.00;1007533;29;20804;-86
2023/07/18 01:41:18;;;;;;;4.55;2.05;;;;;;;11.54;100.00;101971.28;1003801;29;20911;-86
2023/07/18 01:41:50;;;;;;;4.68;2.45;;;;;;;11.50;100.00;101971.84;1001639;29;20322;-86
2023/07/18 01:42:22;;;;;;;3.08;1.73;;;;;;;11.56;100.00;101971.09;1007087;29;20854;-87
2023/07/18 01:42:56;;;;;;;3.90;2.58;;;;;;;11.64;100.00;101976.25;1005977;29;20046;-87
2023/07/18 01:43:27;;;;;;;5.35;2.85;;;;;;;11.52;100.00;101969.84;1001911;29;20053;-86
2023/07/18 01:43:59;;;;;;;4.45;2.08;;;;;;;11.50;100.00;101969.19;1007901;29;20780;-86
2023/07/18 01:44:31;;;;;;;6.15;3.10;;;;;;;11.56;100.00;101961.25;1007580;29;20053;-86
2023/07/18 01:45:03;;;;;;;4.57;2.92;;;;;;;11.50;100.00;101964.66;1005886;29;20041;-86
2023/07/18 01:45:37;;;;;;;4.63;3.33;;;;;;;11.46;100.00;101960.75;1011154;29;20301;-87
2023/07/18 01:46:08;;;;;;;4.95;2.85;;;;;;;11.50;100.00;101964.66;1003627;29;20314;-87
2023/07/18 01:46:40;;;;;;;4.20;2.30;;;;;;;11.46;100.00;101963.41;1008679;29;20381;-86
2023/07/18 01:47:11;;;;;;;6.35;2.47;;;;;;;11.43;100.00;101964.63;1011711;29;20131;-86
2023/07/18 01:47:43;;;;;;;8.30;3.10;;;;;;;11.40;100.00;101964.19;1011506;29;20304;-86
2023/07/18 01:48:16;;;;;;;3.83;2.65;;;;;;;11.57;100.00;101959.41;1004098;29;20852;-87
2023/07/18 01:48:47;;;;;;;7.93;4.05;;;;;;;11.41;100.00;101963.16;1001723;29;20125;-87
2023/07/18 01:49:19;;;;;;;2.55;2.05;;;;;;;11.32;100.00;101962.50;1000988;29;20476;-86
2023/07/18 01:49:50;;;;;;;3.47;2.15;;;;;;;11.46;100.00;101964.22;995021;29;20334;-86
2023/07/18 01:50:22;;;;;;;8.30;2.33;;;;;;;11.51;100.00;101965.50;1003191;29;20137;-86
2023/07/18 01:50:54;;;;;;;4.25;2.55;;;;;;;11.60;100.00;101964.34;1012870;29;20622;-87
2023/07/18 01:51:28;;;;;;;4.07;2.92;;;;;;;11.57;100.00;101970.06;1007498;29;20191;-87
2023/07/18 01:52:00;;;;;;;4.90;2.45;;;;;;;11.46;100.00;101974.91;1007239;29;20310;-87
2023/07/18 01:52:32;;;;;;;3.03;2.45;;;;;;;11.51;100.00;101965.50;1011554;29;20053;-87
2023/07/18 01:53:04;;;;;;;4.82;2.47;;;;;;;11.45;100.00;101967.91;1007836;29;20406;-87
2023/07/18 01:53:35;;;;;;;3.03;2.72;;;;;;;11.35;100.00;101967.44;1011724;29;20315;-87
2023/07/18 01:54:07;;;;;;;2.88;2.45;;;;;;;11.17;100.00;101968.91;1000011;29;20310;-86
2023/07/18 01:54:39;;;;;;;3.63;2.25;;;;;;;11.32;100.00;101962.50;1000059;29;20845;-86
2023/07/18 01:55:10;;;;;;;6.18;2.25;;;;;;;11.28;100.00;101963.91;1004056;29;20463;-86
2023/07/18 01:55:42;;;;;;;4.68;2.30;;;;;;;11.16;100.00;101968.09;1004149;29;20141;-86
2023/07/18 01:56:13;;;;;;;5.30;3.00;;;;;;;11.18;100.00;101966.06;1002768;29;20038;-86
2023/07/18 01:56:48;;;;;;;4.88;2.20;;;;;;;11.19;100.00;101967.72;1000323;29;20046;-86
2023/07/18 01:57:20;;;;;;;2.83;2.17;;;;;;;11.31;100.00;101973.38;1002580;29;20446;-86
2023/07/18 01:57:52;;;;;;;3.42;2.35;;;;;;;11.20;100.00;101969.34;1003956;29;20306;-86
2023/07/18 01:58:23;;;;;;;7.28;2.60;;;;;;;11.32;100.00;101967.84;999687;29;20835;-86
2023/07/18 01:58:55;;;;;;;3.38;2.83;;;;;;;11.42;100.00;101964.81;1001974;29;20401;-86
2023/07/18 01:59:27;;;;;;;3.90;2.47;;;;;;;11.40;100.00;101965.00;1003619;29;20931;-86
2023/07/18 01:59:59;;;;;;;2.53;2.15;;;;;;;11.15;100.00;101966.44;1007757;29;20526;-86
2023/07/18 02:00:32;;;;;;;2.60;1.95;;;;;;;11.10;100.00;101960.88;1007531;29;20309;-87
2023/07/18 02:01:04;;;;;;;4.25;2.38;;;;;;;11.34;100.00;101965.78;1003692;29;20297;-87
2023/07/18 02:01:35;;;;;;;5.25;2.83;;;;;;;11.18;100.00;101955.38;1013213;29;20079;-86
2023/07/18 02:02:08;;;;;;;5.43;2.42;;;;;;;11.14;100.00;101960.28;1011572;29;20068;-86
2023/07/18 02:02:40;;;;;;;2.50;2.08;;;;;;;11.13;100.00;101958.63;1003912;29;20911;-87
2023/07/18 02:03:15;;;;;;;8.70;2.83;;;;;;;11.10;100.00;101958.22;1004040;29;20405;-86
2023/07/18 02:03:46;;;;;;;6.00;2.70;;;;;;;11.04;100.00;101957.13;1006469;29;20317;-87
2023/07/18 02:04:18;;;;;;;6.45;2.65;;;;;;;10.93;100.00;101954.97;1007695;29;20324;-86
2023/07/18 02:04:50;;;;;;;3.97;2.55;;;;;;;10.89;100.00;101956.38;1007792;29;20308;-86
2023/07/18 02:05:24;;;;;;;4.85;2.67;;;;;;;10.83;100.00;101952.63;1001686;29;20314;-86
2023/07/18 02:05:55;;;;;;;4.50;2.28;;;;;;;10.80;100.00;101947.69;1007391;29;20742;-86
2023/07/18 02:06:27;;;;;;;5.13;2.40;;;;;;;10.88;100.00;101953.91;1004122;29;20317;-86
2023/07/18 02:06:59;;;;;;;3.13;2.60;;;;;;;10.87;100.00;101952.25;1012870;29;20314;-86
2023/07/18 02:07:31;;;;;;;3.75;2.88;;;;;;;10.95;100.00;101957.44;1007957;29;20672;-86
2023/07/18 02:08:03;;;;;;;5.13;2.80;;;;;;;11.09;100.00;101954.72;1011736;29;20316;-87
2023/07/18 02:08:37;;;;;;;6.13;3.05;;;;;;;11.15;100.00;101950.44;999906;29;20053;-87
2023/07/18 02:09:09;;;;;;;4.45;2.53;;;;;;;11.04;100.00;101954.47;1002888;29;20041;-86
2023/07/18 02:09:41;;;;;;;5.50;3.00;;;;;;;10.87;100.00;101952.25;1010294;29;20109;-86
2023/07/18 02:10:14;;;;;;;2.95;2.75;;;;;;;11.09;100.00;101952.06;1015608;29;20541;-86
2023/07/18 02:10:46;;;;;;;2.55;2.35;;;;;;;11.10;100.00;101947.53;1003589;29;20318;-86
2023/07/18 02:11:18;;;;;;;7.10;2.95;;;;;;;10.96;100.00;101941.28;1005059;29;20314;-86
2023/07/18 02:11:50;;;;;;;5.30;2.33;;;;;;;10.88;100.00;101951.22;1004022;29;20384;-86
2023/07/18 02:12:22;;;;;;;3.03;2.67;;;;;;;10.89;100.00;101955.53;999789;29;20355;-87
2023/07/18 02:12:56;;;;;;;6.32;2.28;;;;;;;11.05;100.00;101949.97;1005008;29;20403;-87
2023/07/18 02:13:28;;;;;;;3.80;3.15;;;;;;;10.94;100.00;101953.13;1003807;29;20317;-87
2023/07/18 02:14:03;;;;;;;2.67;2.47;;;;;;;11.06;100.00;101951.63;1003900;29;20576;-87
2023/07/18 02:14:36;;;;;;;3.92;2.53;;;;;;;11.18;100.00;101951.91;1011582;29;20913;-87
2023/07/18 02:15:08;;;;;;;3.92;2.53;;;;;;;10.89;100.00;101950.22;1009771;29;20053;-86
2023/07/18 02:15:40;;;;;;;3.28;2.92;;;;;;;10.88;100.00;101956.56;1004023;29;20306;-86
2023/07/18 02:16:11;;;;;;;4.47;2.85;;;;;;;10.89;100.00;101947.56;1003721;29;20310;-86
2023/07/18 02:16:43;;;;;;;3.75;2.35;;;;;;;10.79;100.00;101943.38;1011429;29;20308;-86
2023/07/18 02:17:15;;;;;;;17.50;3.53;;;;;;;10.87;100.00;101944.25;1015432;29;20706;-86
2023/07/18 02:17:49;;;;;;;6.03;2.85;;;;;;;10.84;100.00;101943.63;1007428;29;20309;-86
2023/07/18 02:18:21;;;;;;;5.75;4.22;;;;;;;10.83;100.00;101947.31;1011419;29;20309;-86
2023/07/18 02:18:54;;;;;;;6.90;2.47;;;;;;;10.88;100.00;101943.22;1009310;29;20056;-86
2023/07/18 02:19:25;;;;;;;9.50;4.63;;;;;;;10.84;100.00;101943.63;1007826;29;20400;-86
2023/07/18 02:19:57;;;;;;;4.07;2.90;;;;;;;10.80;100.00;101945.03;1007828;29;20197;-86
2023/07/18 02:20:28;;;;;;;4.15;2.67;;;;;;;10.77;100.00;101936.59;1003879;29;20246;-86
2023/07/18 02:21:00;;;;;;;5.25;2.47;;;;;;;10.72;100.00;101934.50;1003736;29;20306;-87
2023/07/18 02:21:32;;;;;;;4.85;2.97;;;;;;;10.73;100.00;101936.16;1007824;29;20302;-87
2023/07/18 02:22:04;;;;;;;6.13;2.50;;;;;;;10.76;100.00;101940.25;1003751;29;20310;-86
2023/07/18 02:22:36;;;;;;;3.72;2.70;;;;;;;10.96;100.00;101940.47;1002074;29;20390;-86
2023/07/18 02:23:07;;;;;;;5.57;2.35;;;;;;;11.03;100.00;101941.34;1011607;29;20319;-86
2023/07/18 02:23:42;;;;;;;5.32;2.58;;;;;;;10.82;100.00;101940.31;1007367;29;20320;-87
2023/07/18 02:24:18;;;;;;;2.83;2.45;;;;;;;10.76;100.00;101941.09;1007569;29;20293;-86
2023/07/18 02:24:49;;;;;;;4.68;2.40;;;;;;;10.77;100.00;101948.06;1009602;29;20289;-86
2023/07/18 02:25:21;;;;;;;3.78;2.33;;;;;;;10.97;100.00;101948.25;1003138;29;20373;-87
2023/07/18 02:25:54;;;;;;;2.42;2.25;;;;;;;10.90;100.00;101946.53;1000504;29;20356;-87
2023/07/18 02:26:26;;;;;;;5.75;2.30;;;;;;;11.08;100.00;101949.56;1007781;29;20337;-87
2023/07/18 02:26:58;;;;;;;6.53;2.33;;;;;;;11.09;100.00;101956.56;1007803;29;20297;-87
2023/07/18 02:27:31;;;;;;;5.30;3.25;;;;;;;11.19;100.00;101951.72;1003596;29;20052;-87
2023/07/18 02:28:03;;;;;;;4.68;2.53;;;;;;;11.23;100.00;101954.81;998034;29;20054;-87
2023/07/18 02:28:35;;;;;;;2.30;2.10;;;;;;;11.30;100.00;101948.53;996484;29;20347;-87
2023/07/18 02:29:07;;;;;;;11.02;3.05;;;;;;;11.22;100.00;101945.16;1000626;29;20326;-87